sensor_id;sensor_type;location;lat;lon;timestamp;pressure;altitude;pressure_sealevel;temperature;humidity
20119;BME280;10220;42.716;23.306;2024-01-15T00:00:43;94755.81;;;-2.73;100.00
20119;BME280;10220;42.716;23.306;2024-01-15T00:03:27;94726.13;;;-2.99;100.00
20119;BME280;10220;42.716;23.306;2024-01-15T00:05:53;94710.94;;;-3.18;100.00
20119;BME280;10220;42.716;23.306;2024-01-15T00:08:18;94758.75;;;-2.68;100.00
20119;BME280;10220;42.716;23.306;2024-01-15T00:10:44;94695.75;;;-2.90;100.00
20119;BME280;10220;42.716;23.306;2024-01-15T00:13:09;94727.28;;;-2.46;100.00
20119;BME280;10220;42.716;23.306;2024-01-15T00:15:35;94725.00;;;-2.49;100.00
20119;BME280;10220;42.716;23.306;2024-01-15T00:18:00;94748.06;;;-2.33;100.00
20119;BME280;10220;42.716;23.306;2024-01-15T00:20:25;94752.09;;;-2.59;100.00
20119;BME280;10220;42.716;23.306;2024-01-15T00:22:51;94752.91;;;-2.59;100.00
20119;BME280;10220;42.716;23.306;2024-01-15T00:25:16;94761.66;;;-2.34;100.00
20119;BME280;10220;42.716;23.306;2024-01-15T00:27:43;94740.81;;;-2.29;100.00
20119;BME280;10220;42.716;23.306;2024-01-15T00:30:08;94737.41;;;-2.56;100.00
20119;BME280;10220;42.716;23.306;2024-01-15T00:32:34;94749.53;;;-2.31;100.00
20119;BME280;10220;42.716;23.306;2024-01-15T00:35:00;94742.03;;;-2.23;100.00
20119;BME280;10220;42.716;23.306;2024-01-15T00:37:25;94762.34;;;-2.51;100.00
20119;BME280;10220;42.716;23.306;2024-01-15T00:39:50;94756.59;;;-2.34;100.00
20119;BME280;10220;42.716;23.306;2024-01-15T00:42:16;94692.00;;;-2.95;100.00
20119;BME280;10220;42.716;23.306;2024-01-15T00:44:42;94718.94;;;-3.03;100.00
20119;BME280;10220;42.716;23.306;2024-01-15T00:47:07;94747.59;;;-2.84;100.00
20119;BME280;10220;42.716;23.306;2024-01-15T00:49:33;94749.31;;;-2.75;100.00
20119;BME280;10220;42.716;23.306;2024-01-15T00:51:58;94741.56;;;-2.83;100.00
20119;BME280;10220;42.716;23.306;2024-01-15T00:54:24;94745.19;;;-2.76;100.00
20119;BME280;10220;42.716;23.306;2024-01-15T00:56:49;94744.53;;;-2.69;100.00
20119;BME280;10220;42.716;23.306;2024-01-15T00:59:18;94739.03;;;-2.64;100.00
20119;BME280;10220;42.716;23.306;2024-01-15T01:01:45;94735.97;;;-2.77;100.00
20119;BME280;10220;42.716;23.306;2024-01-15T01:04:12;94733.47;;;-2.87;100.00
20119;BME280;10220;42.716;23.306;2024-01-15T01:06:37;94741.84;;;-2.67;100.00
20119;BME280;10220;42.716;23.306;2024-01-15T01:09:03;94751.81;;;-2.56;100.00
20119;BME280;10220;42.716;23.306;2024-01-15T01:11:29;94742.09;;;-2.51;100.00
20119;BME280;10220;42.716;23.306;2024-01-15T01:13:54;94733.66;;;-2.33;100.00
20119;BME280;10220;42.716;23.306;2024-01-15T01:16:21;94742.19;;;-2.34;100.00
20119;BME280;10220;42.716;23.306;2024-01-15T01:18:47;94720.91;;;-2.50;100.00
20119;BME280;10220;42.716;23.306;2024-01-15T01:21:12;94726.00;;;-2.88;100.00
20119;BME280;10220;42.716;23.306;2024-01-15T01:23:38;94740.91;;;-2.85;100.00
20119;BME280;10220;42.716;23.306;2024-01-15T01:26:03;94689.22;;;-2.83;100.00
20119;BME280;10220;42.716;23.306;2024-01-15T01:28:29;94722.22;;;-2.46;100.00
20119;BME280;10220;42.716;23.306;2024-01-15T01:30:54;94715.72;;;-2.77;100.00
20119;BME280;10220;42.716;23.306;2024-01-15T01:33:20;94695.34;;;-3.04;100.00
20119;BME280;10220;42.716;23.306;2024-01-15T01:35:45;94722.28;;;-2.84;100.00
20119;BME280;10220;42.716;23.306;2024-01-15T01:38:15;94714.94;;;-3.06;100.00
20119;BME280;10220;42.716;23.306;2024-01-15T01:40:40;94712.66;;;-3.47;100.00
20119;BME280;10220;42.716;23.306;2024-01-15T01:43:06;94704.66;;;-3.42;100.00
20119;BME280;10220;42.716;23.306;2024-01-15T01:45:31;94714.41;;;-3.19;100.00
20119;BME280;10220;42.716;23.306;2024-01-15T01:47:57;94703.63;;;-3.02;100.00
20119;BME280;10220;42.716;23.306;2024-01-15T01:50:23;94697.47;;;-3.18;100.00
20119;BME280;10220;42.716;23.306;2024-01-15T01:52:49;94688.56;;;-3.22;100.00
20119;BME280;10220;42.716;23.306;2024-01-15T01:55:26;94663.63;;;-3.08;100.00
20119;BME280;10220;42.716;23.306;2024-01-15T01:57:53;94714.22;;;-2.70;100.00
20119;BME280;10220;42.716;23.306;2024-01-15T02:00:19;94719.31;;;-2.61;100.00
20119;BME280;10220;42.716;23.306;2024-01-15T02:02:45;94668.66;;;-2.80;100.00
20119;BME280;10220;42.716;23.306;2024-01-15T02:05:12;94672.50;;;-2.66;100.00
20119;BME280;10220;42.716;23.306;2024-01-15T02:07:42;94687.78;;;-2.39;100.00
20119;BME280;10220;42.716;23.306;2024-01-15T02:10:09;94707.09;;;-2.29;100.00
20119;BME280;10220;42.716;23.306;2024-01-15T02:12:34;94686.13;;;-2.22;100.00
20119;BME280;10220;42.716;23.306;2024-01-15T02:15:00;94685.25;;;-2.39;100.00
20119;BME280;10220;42.716;23.306;2024-01-15T02:17:29;94693.84;;;-2.59;100.00
20119;BME280;10220;42.716;23.306;2024-01-15T02:19:54;94666.94;;;-2.89;100.00
20119;BME280;10220;42.716;23.306;2024-01-15T02:22:20;94671.28;;;-2.53;100.00
20119;BME280;10220;42.716;23.306;2024-01-15T02:24:45;94659.00;;;-2.57;100.00
20119;BME280;10220;42.716;23.306;2024-01-15T02:27:11;94626.75;;;-2.55;100.00
20119;BME280;10220;42.716;23.306;2024-01-15T02:29:43;94589.09;;;-2.77;100.00
20119;BME280;10220;42.716;23.306;2024-01-15T02:32:09;94629.38;;;-2.47;100.00
20119;BME280;10220;42.716;23.306;2024-01-15T02:34:35;94637.75;;;-2.74;100.00
20119;BME280;10220;42.716;23.306;2024-01-15T02:37:00;94633.81;;;-2.59;100.00
20119;BME280;10220;42.716;23.306;2024-01-15T02:39:26;94647.13;;;-2.47;100.00
20119;BME280;10220;42.716;23.306;2024-01-15T02:41:51;94655.84;;;-2.33;100.00
20119;BME280;10220;42.716;23.306;2024-01-15T02:44:17;94651.38;;;-2.38;100.00
20119;BME280;10220;42.716;23.306;2024-01-15T02:46:45;94594.50;;;-2.63;100.00
20119;BME280;10220;42.716;23.306;2024-01-15T02:49:11;94625.94;;;-2.56;100.00
20119;BME280;10220;42.716;23.306;2024-01-15T02:51:36;94637.03;;;-2.57;100.00
20119;BME280;10220;42.716;23.306;2024-01-15T02:54:02;94647.31;;;-2.58;100.00
20119;BME280;10220;42.716;23.306;2024-01-15T02:56:27;94646.09;;;-2.64;100.00
20119;BME280;10220;42.716;23.306;2024-01-15T02:58:52;94638.91;;;-2.68;100.00
20119;BME280;10220;42.716;23.306;2024-01-15T03:01:19;94636.88;;;-2.55;100.00
20119;BME280;10220;42.716;23.306;2024-01-15T03:03:45;94634.59;;;-2.49;100.00
20119;BME280;10220;42.716;23.306;2024-01-15T03:06:10;94643.47;;;-2.35;100.00
20119;BME280;10220;42.716;23.306;2024-01-15T03:08:36;94631.09;;;-2.93;100.00
20119;BME280;10220;42.716;23.306;2024-01-15T03:11:01;94629.00;;;-3.26;100.00
20119;BME280;10220;42.716;23.306;2024-01-15T03:13:27;94636.59;;;-2.98;100.00
20119;BME280;10220;42.716;23.306;2024-01-15T03:15:52;94628.09;;;-3.53;100.00
20119;BME280;10220;42.716;23.306;2024-01-15T03:18:18;94632.22;;;-3.24;100.00
20119;BME280;10220;42.716;23.306;2024-01-15T03:20:43;94632.72;;;-3.02;100.00
20119;BME280;10220;42.716;23.306;2024-01-15T03:23:09;94611.66;;;-2.93;100.00
20119;BME280;10220;42.716;23.306;2024-01-15T03:25:34;94619.59;;;-2.69;100.00
20119;BME280;10220;42.716;23.306;2024-01-15T03:28:00;94616.81;;;-2.76;100.00
20119;BME280;10220;42.716;23.306;2024-01-15T03:30:25;94612.81;;;-2.69;100.00
20119;BME280;10220;42.716;23.306;2024-01-15T03:32:51;94622.44;;;-2.82;100.00
20119;BME280;10220;42.716;23.306;2024-01-15T03:35:16;94617.19;;;-2.71;100.00
20119;BME280;10220;42.716;23.306;2024-01-15T03:37:42;94578.81;;;-3.21;100.00
20119;BME280;10220;42.716;23.306;2024-01-15T03:40:08;94606.97;;;-2.79;100.00
20119;BME280;10220;42.716;23.306;2024-01-15T03:42:33;94624.41;;;-2.76;100.00
20119;BME280;10220;42.716;23.306;2024-01-15T03:44:59;94604.97;;;-2.85;100.00
20119;BME280;10220;42.716;23.306;2024-01-15T03:47:24;94616.13;;;-2.68;100.00
20119;BME280;10220;42.716;23.306;2024-01-15T03:49:50;94585.53;;;-2.93;100.00
20119;BME280;10220;42.716;23.306;2024-01-15T03:52:18;94617.13;;;-2.88;100.00
20119;BME280;10220;42.716;23.306;2024-01-15T03:54:44;94610.19;;;-2.95;100.00
20119;BME280;10220;42.716;23.306;2024-01-15T03:57:09;94619.22;;;-2.84;100.00
20119;BME280;10220;42.716;23.306;2024-01-15T03:59:35;94612.66;;;-2.67;100.00
20119;BME280;10220;42.716;23.306;2024-01-15T04:02:01;94608.47;;;-2.59;100.00
20119;BME280;10220;42.716;23.306;2024-01-15T04:04:29;94606.63;;;-2.66;100.00
20119;BME280;10220;42.716;23.306;2024-01-15T04:06:54;94588.16;;;-3.41;100.00
20119;BME280;10220;42.716;23.306;2024-01-15T04:09:20;94588.38;;;-3.06;100.00
20119;BME280;10220;42.716;23.306;2024-01-15T04:11:45;94589.56;;;-3.10;100.00
20119;BME280;10220;42.716;23.306;2024-01-15T04:14:11;94579.34;;;-3.18;100.00
20119;BME280;10220;42.716;23.306;2024-01-15T04:16:37;94594.06;;;-3.04;100.00
20119;BME280;10220;42.716;23.306;2024-01-15T04:19:06;94584.91;;;-3.14;100.00
20119;BME280;10220;42.716;23.306;2024-01-15T04:21:31;94595.66;;;-2.84;100.00
20119;BME280;10220;42.716;23.306;2024-01-15T04:23:57;94590.72;;;-2.86;100.00
20119;BME280;10220;42.716;23.306;2024-01-15T04:26:22;94588.34;;;-2.96;100.00
20119;BME280;10220;42.716;23.306;2024-01-15T04:28:47;94575.97;;;-2.99;100.00
20119;BME280;10220;42.716;23.306;2024-01-15T04:31:23;94576.59;;;-2.97;100.00
20119;BME280;10220;42.716;23.306;2024-01-15T04:33:49;94581.06;;;-3.18;100.00
20119;BME280;10220;42.716;23.306;2024-01-15T04:36:14;94576.41;;;-3.42;100.00
20119;BME280;10220;42.716;23.306;2024-01-15T04:38:40;94585.34;;;-3.28;100.00
20119;BME280;10220;42.716;23.306;2024-01-15T04:41:05;94589.34;;;-3.35;100.00
20119;BME280;10220;42.716;23.306;2024-01-15T04:43:31;94574.41;;;-3.19;100.00
20119;BME280;10220;42.716;23.306;2024-01-15T04:45:57;94585.69;;;-3.04;100.00
20119;BME280;10220;42.716;23.306;2024-01-15T04:48:22;94580.81;;;-3.15;100.00
20119;BME280;10220;42.716;23.306;2024-01-15T04:50:48;94570.72;;;-3.44;100.00
20119;BME280;10220;42.716;23.306;2024-01-15T04:53:14;94592.16;;;-3.85;100.00
20119;BME280;10220;42.716;23.306;2024-01-15T04:55:39;94576.44;;;-3.79;100.00
20119;BME280;10220;42.716;23.306;2024-01-15T04:58:05;94536.25;;;-3.54;100.00
20119;BME280;10220;42.716;23.306;2024-01-15T05:00:30;94575.91;;;-3.36;100.00
20119;BME280;10220;42.716;23.306;2024-01-15T05:02:55;94578.53;;;-3.18;100.00
20119;BME280;10220;42.716;23.306;2024-01-15T05:05:21;94561.38;;;-3.24;100.00
20119;BME280;10220;42.716;23.306;2024-01-15T05:08:05;94565.09;;;-3.19;100.00
20119;BME280;10220;42.716;23.306;2024-01-15T05:10:31;94565.88;;;-3.18;100.00
20119;BME280;10220;42.716;23.306;2024-01-15T05:13:15;94564.28;;;-3.29;100.00
20119;BME280;10220;42.716;23.306;2024-01-15T05:15:41;94573.56;;;-3.10;100.00
20119;BME280;10220;42.716;23.306;2024-01-15T05:18:06;94560.16;;;-3.20;100.00
20119;BME280;10220;42.716;23.306;2024-01-15T05:20:32;94558.88;;;-3.34;100.00
20119;BME280;10220;42.716;23.306;2024-01-15T05:22:57;94556.56;;;-3.27;100.00
20119;BME280;10220;42.716;23.306;2024-01-15T05:25:23;94566.22;;;-3.04;100.00
20119;BME280;10220;42.716;23.306;2024-01-15T05:27:48;94572.25;;;-3.14;100.00
20119;BME280;10220;42.716;23.306;2024-01-15T05:30:14;94567.06;;;-3.22;100.00
20119;BME280;10220;42.716;23.306;2024-01-15T05:32:45;94558.28;;;-3.09;100.00
20119;BME280;10220;42.716;23.306;2024-01-15T05:35:11;94543.41;;;-3.31;100.00
20119;BME280;10220;42.716;23.306;2024-01-15T05:37:38;94560.56;;;-3.25;100.00
20119;BME280;10220;42.716;23.306;2024-01-15T05:40:04;94553.03;;;-2.98;100.00
20119;BME280;10220;42.716;23.306;2024-01-15T05:42:29;94494.22;;;-3.19;100.00
20119;BME280;10220;42.716;23.306;2024-01-15T05:44:57;94549.50;;;-2.78;100.00
20119;BME280;10220;42.716;23.306;2024-01-15T05:47:24;94553.25;;;-3.28;100.00
20119;BME280;10220;42.716;23.306;2024-01-15T05:49:50;94546.13;;;-3.05;100.00
20119;BME280;10220;42.716;23.306;2024-01-15T05:52:15;94536.03;;;-3.15;100.00
20119;BME280;10220;42.716;23.306;2024-01-15T05:54:41;94474.63;;;-3.53;100.00
20119;BME280;10220;42.716;23.306;2024-01-15T05:57:13;94536.00;;;-3.05;100.00
20119;BME280;10220;42.716;23.306;2024-01-15T05:59:38;94528.78;;;-3.00;100.00
20119;BME280;10220;42.716;23.306;2024-01-15T06:02:04;94554.78;;;-3.08;100.00
20119;BME280;10220;42.716;23.306;2024-01-15T06:04:29;94491.75;;;-3.47;100.00
20119;BME280;10220;42.716;23.306;2024-01-15T06:06:55;94558.66;;;-3.13;100.00
20119;BME280;10220;42.716;23.306;2024-01-15T06:09:20;94533.56;;;-3.34;100.00
20119;BME280;10220;42.716;23.306;2024-01-15T06:11:46;94561.06;;;-3.12;100.00
20119;BME280;10220;42.716;23.306;2024-01-15T06:14:11;94506.91;;;-3.28;100.00
20119;BME280;10220;42.716;23.306;2024-01-15T06:16:37;94537.06;;;-3.08;100.00
20119;BME280;10220;42.716;23.306;2024-01-15T06:19:05;94530.56;;;-2.74;100.00
20119;BME280;10220;42.716;23.306;2024-01-15T06:21:30;94534.06;;;-2.85;100.00
20119;BME280;10220;42.716;23.306;2024-01-15T06:23:56;94526.94;;;-2.72;100.00
20119;BME280;10220;42.716;23.306;2024-01-15T06:26:22;94514.03;;;-2.69;100.00
20119;BME280;10220;42.716;23.306;2024-01-15T06:28:48;94503.31;;;-2.63;100.00
20119;BME280;10220;42.716;23.306;2024-01-15T06:31:13;94508.97;;;-2.51;100.00
20119;BME280;10220;42.716;23.306;2024-01-15T06:33:40;94529.94;;;-2.59;100.00
20119;BME280;10220;42.716;23.306;2024-01-15T06:36:06;94539.22;;;-2.77;100.00
20119;BME280;10220;42.716;23.306;2024-01-15T06:38:32;94545.91;;;-2.49;100.00
20119;BME280;10220;42.716;23.306;2024-01-15T06:40:57;94540.03;;;-2.23;100.00
20119;BME280;10220;42.716;23.306;2024-01-15T06:43:23;94521.38;;;-2.75;100.00
20119;BME280;10220;42.716;23.306;2024-01-15T06:45:48;94529.63;;;-2.46;100.00
20119;BME280;10220;42.716;23.306;2024-01-15T06:48:14;94523.44;;;-2.17;100.00
20119;BME280;10220;42.716;23.306;2024-01-15T06:50:44;94524.56;;;-2.46;100.00
20119;BME280;10220;42.716;23.306;2024-01-15T06:53:10;94481.13;;;-2.51;100.00
20119;BME280;10220;42.716;23.306;2024-01-15T06:55:35;94525.50;;;-1.86;100.00
20119;BME280;10220;42.716;23.306;2024-01-15T06:58:01;94547.47;;;-1.60;100.00
20119;BME280;10220;42.716;23.306;2024-01-15T07:00:26;94536.56;;;-1.52;100.00
20119;BME280;10220;42.716;23.306;2024-01-15T07:02:53;94552.31;;;-1.66;100.00
20119;BME280;10220;42.716;23.306;2024-01-15T07:05:20;94559.19;;;-1.93;100.00
20119;BME280;10220;42.716;23.306;2024-01-15T07:07:46;94532.97;;;-1.67;100.00
20119;BME280;10220;42.716;23.306;2024-01-15T07:10:12;94539.88;;;-1.34;100.00
20119;BME280;10220;42.716;23.306;2024-01-15T07:12:38;94532.53;;;-1.20;100.00
20119;BME280;10220;42.716;23.306;2024-01-15T07:15:04;94530.38;;;-1.07;100.00
20119;BME280;10220;42.716;23.306;2024-01-15T07:17:31;94550.13;;;-1.61;100.00
20119;BME280;10220;42.716;23.306;2024-01-15T07:23:12;94535.84;;;-1.79;100.00
20119;BME280;10220;42.716;23.306;2024-01-15T07:25:37;94492.59;;;-1.95;100.00
20119;BME280;10220;42.716;23.306;2024-01-15T07:28:03;94532.28;;;-1.34;100.00
20119;BME280;10220;42.716;23.306;2024-01-15T07:30:29;94540.34;;;-1.14;100.00
20119;BME280;10220;42.716;23.306;2024-01-15T07:32:54;94515.50;;;-1.02;100.00
20119;BME280;10220;42.716;23.306;2024-01-15T07:35:21;94527.50;;;-0.87;100.00
20119;BME280;10220;42.716;23.306;2024-01-15T07:37:46;94521.44;;;-0.86;100.00
20119;BME280;10220;42.716;23.306;2024-01-15T07:40:12;94530.28;;;-0.72;100.00
20119;BME280;10220;42.716;23.306;2024-01-15T07:42:40;94522.47;;;-0.79;100.00
20119;BME280;10220;42.716;23.306;2024-01-15T07:45:11;94525.78;;;-0.78;100.00
20119;BME280;10220;42.716;23.306;2024-01-15T07:47:36;94506.28;;;-1.03;100.00
20119;BME280;10220;42.716;23.306;2024-01-15T07:50:02;94548.34;;;-0.75;100.00
20119;BME280;10220;42.716;23.306;2024-01-15T07:52:28;94549.34;;;-0.94;100.00
20119;BME280;10220;42.716;23.306;2024-01-15T07:54:54;94549.03;;;-0.99;100.00
20119;BME280;10220;42.716;23.306;2024-01-15T07:57:23;94495.28;;;-1.12;100.00
20119;BME280;10220;42.716;23.306;2024-01-15T07:59:48;94485.78;;;-1.10;100.00
20119;BME280;10220;42.716;23.306;2024-01-15T08:02:15;94490.38;;;-0.80;100.00
20119;BME280;10220;42.716;23.306;2024-01-15T08:04:41;94498.59;;;-0.86;100.00
20119;BME280;10220;42.716;23.306;2024-01-15T08:07:06;94515.44;;;-0.85;100.00
20119;BME280;10220;42.716;23.306;2024-01-15T08:09:34;94515.94;;;-0.81;100.00
20119;BME280;10220;42.716;23.306;2024-01-15T08:12:00;94550.75;;;-0.41;100.00
20119;BME280;10220;42.716;23.306;2024-01-15T08:14:26;94530.94;;;-0.62;100.00
20119;BME280;10220;42.716;23.306;2024-01-15T08:16:51;94500.13;;;-0.67;100.00
20119;BME280;10220;42.716;23.306;2024-01-15T08:19:16;94498.53;;;-0.68;100.00
20119;BME280;10220;42.716;23.306;2024-01-15T08:21:42;94498.78;;;-0.38;100.00
20119;BME280;10220;42.716;23.306;2024-01-15T08:24:08;94548.63;;;-0.04;100.00
20119;BME280;10220;42.716;23.306;2024-01-15T08:26:34;94517.44;;;-0.30;100.00
20119;BME280;10220;42.716;23.306;2024-01-15T08:28:59;94519.84;;;-0.20;100.00
20119;BME280;10220;42.716;23.306;2024-01-15T08:31:27;94488.38;;;-0.11;100.00
20119;BME280;10220;42.716;23.306;2024-01-15T08:33:53;94507.19;;;0.19;100.00
20119;BME280;10220;42.716;23.306;2024-01-15T08:36:19;94500.97;;;-0.02;100.00
20119;BME280;10220;42.716;23.306;2024-01-15T08:38:44;94478.41;;;0.19;100.00
20119;BME280;10220;42.716;23.306;2024-01-15T08:41:10;94520.06;;;0.18;100.00
20119;BME280;10220;42.716;23.306;2024-01-15T08:43:35;94525.22;;;0.50;100.00
20119;BME280;10220;42.716;23.306;2024-01-15T08:46:02;94519.63;;;0.86;100.00
20119;BME280;10220;42.716;23.306;2024-01-15T08:48:28;94505.59;;;0.90;100.00
20119;BME280;10220;42.716;23.306;2024-01-15T08:50:54;94492.19;;;1.04;100.00
20119;BME280;10220;42.716;23.306;2024-01-15T08:53:20;94500.31;;;0.99;100.00
20119;BME280;10220;42.716;23.306;2024-01-15T08:55:46;94489.19;;;0.92;100.00
20119;BME280;10220;42.716;23.306;2024-01-15T08:58:12;94468.16;;;0.90;100.00
20119;BME280;10220;42.716;23.306;2024-01-15T09:00:38;94460.03;;;0.95;100.00
20119;BME280;10220;42.716;23.306;2024-01-15T09:03:04;94455.75;;;0.87;100.00
20119;BME280;10220;42.716;23.306;2024-01-15T09:05:29;94468.47;;;1.03;100.00
20119;BME280;10220;42.716;23.306;2024-01-15T09:07:55;94470.06;;;0.88;100.00
20119;BME280;10220;42.716;23.306;2024-01-15T09:10:21;94457.34;;;0.96;100.00
20119;BME280;10220;42.716;23.306;2024-01-15T09:12:47;94442.56;;;1.22;100.00
20119;BME280;10220;42.716;23.306;2024-01-15T09:15:14;94449.78;;;1.18;100.00
20119;BME280;10220;42.716;23.306;2024-01-15T09:17:39;94424.59;;;1.15;100.00
20119;BME280;10220;42.716;23.306;2024-01-15T09:20:05;94428.31;;;1.43;100.00
20119;BME280;10220;42.716;23.306;2024-01-15T09:22:31;94432.41;;;1.52;100.00
20119;BME280;10220;42.716;23.306;2024-01-15T09:24:58;94407.47;;;1.62;100.00
20119;BME280;10220;42.716;23.306;2024-01-15T09:27:24;94417.72;;;1.84;100.00
20119;BME280;10220;42.716;23.306;2024-01-15T09:29:51;94424.94;;;2.03;100.00
20119;BME280;10220;42.716;23.306;2024-01-15T09:32:17;94420.78;;;2.02;100.00
20119;BME280;10220;42.716;23.306;2024-01-15T09:34:43;94418.28;;;1.94;100.00
20119;BME280;10220;42.716;23.306;2024-01-15T09:37:09;94413.69;;;1.90;100.00
20119;BME280;10220;42.716;23.306;2024-01-15T09:39:34;94398.44;;;1.52;100.00
20119;BME280;10220;42.716;23.306;2024-01-15T09:42:00;94406.28;;;1.73;100.00
20119;BME280;10220;42.716;23.306;2024-01-15T09:44:27;94386.06;;;1.71;100.00
20119;BME280;10220;42.716;23.306;2024-01-15T09:46:53;94379.16;;;1.79;100.00
20119;BME280;10220;42.716;23.306;2024-01-15T09:49:20;94377.09;;;1.97;100.00
20119;BME280;10220;42.716;23.306;2024-01-15T09:51:46;94368.28;;;2.00;100.00
20119;BME280;10220;42.716;23.306;2024-01-15T09:54:12;94367.00;;;1.59;100.00
20119;BME280;10220;42.716;23.306;2024-01-15T09:56:44;94370.47;;;1.88;100.00
20119;BME280;10220;42.716;23.306;2024-01-15T09:59:11;94354.81;;;2.28;100.00
20119;BME280;10220;42.716;23.306;2024-01-15T10:01:38;94336.63;;;2.45;100.00
20119;BME280;10220;42.716;23.306;2024-01-15T10:04:05;94345.44;;;2.86;100.00
20119;BME280;10220;42.716;23.306;2024-01-15T10:06:32;94333.44;;;3.36;100.00
20119;BME280;10220;42.716;23.306;2024-01-15T10:08:57;94325.66;;;3.58;100.00
20119;BME280;10220;42.716;23.306;2024-01-15T10:11:29;94296.28;;;3.54;100.00
20119;BME280;10220;42.716;23.306;2024-01-15T10:13:58;94273.28;;;3.05;100.00
20119;BME280;10220;42.716;23.306;2024-01-15T10:16:24;94319.19;;;3.62;100.00
20119;BME280;10220;42.716;23.306;2024-01-15T10:18:52;94315.13;;;4.16;99.06
20119;BME280;10220;42.716;23.306;2024-01-15T10:21:24;94329.28;;;4.12;95.34
20119;BME280;10220;42.716;23.306;2024-01-15T10:23:51;94253.28;;;3.50;97.34
20119;BME280;10220;42.716;23.306;2024-01-15T10:26:24;94302.97;;;4.24;94.69
20119;BME280;10220;42.716;23.306;2024-01-15T10:28:50;94304.31;;;4.20;93.39
20119;BME280;10220;42.716;23.306;2024-01-15T10:31:17;94284.00;;;3.92;93.73
20119;BME280;10220;42.716;23.306;2024-01-15T10:33:44;94309.22;;;3.95;95.45
20119;BME280;10220;42.716;23.306;2024-01-15T10:36:10;94300.34;;;4.18;93.33
20119;BME280;10220;42.716;23.306;2024-01-15T10:38:44;94268.19;;;4.09;91.33
20119;BME280;10220;42.716;23.306;2024-01-15T10:41:41;94290.28;;;4.44;92.88
20119;BME280;10220;42.716;23.306;2024-01-15T10:44:25;94284.94;;;4.11;95.42
20119;BME280;10220;42.716;23.306;2024-01-15T10:46:51;94282.94;;;4.34;92.93
20119;BME280;10220;42.716;23.306;2024-01-15T10:49:17;94259.09;;;4.34;91.13
20119;BME280;10220;42.716;23.306;2024-01-15T10:51:45;94275.97;;;4.28;91.42
20119;BME280;10220;42.716;23.306;2024-01-15T10:54:11;94277.94;;;4.54;91.67
20119;BME280;10220;42.716;23.306;2024-01-15T10:56:39;94263.88;;;4.43;90.42
20119;BME280;10220;42.716;23.306;2024-01-15T10:59:05;94259.44;;;4.64;90.52
20119;BME280;10220;42.716;23.306;2024-01-15T11:01:33;94256.91;;;4.71;88.34
20119;BME280;10220;42.716;23.306;2024-01-15T11:04:00;94246.28;;;4.74;86.95
20119;BME280;10220;42.716;23.306;2024-01-15T11:06:27;94264.13;;;4.88;86.68
20119;BME280;10220;42.716;23.306;2024-01-15T11:08:55;94249.84;;;5.32;85.73
20119;BME280;10220;42.716;23.306;2024-01-15T11:11:21;94230.81;;;5.01;80.14
20119;BME280;10220;42.716;23.306;2024-01-15T11:13:47;94233.09;;;5.49;78.74
20119;BME280;10220;42.716;23.306;2024-01-15T11:16:15;94223.19;;;4.67;80.10
20119;BME280;10220;42.716;23.306;2024-01-15T11:19:04;94218.38;;;4.58;81.70
20119;BME280;10220;42.716;23.306;2024-01-15T11:21:41;94216.69;;;4.71;82.74
20119;BME280;10220;42.716;23.306;2024-01-15T11:24:07;94235.72;;;4.90;82.46
20119;BME280;10220;42.716;23.306;2024-01-15T11:26:46;94231.03;;;5.13;82.58
20119;BME280;10220;42.716;23.306;2024-01-15T11:34:56;94220.41;;;5.16;78.94
20119;BME280;10220;42.716;23.306;2024-01-15T11:37:23;94207.75;;;5.27;82.01
20119;BME280;10220;42.716;23.306;2024-01-15T11:39:51;94199.28;;;5.20;84.55
20119;BME280;10220;42.716;23.306;2024-01-15T11:42:17;94187.81;;;5.22;85.09
20119;BME280;10220;42.716;23.306;2024-01-15T11:44:44;94183.28;;;5.12;81.15
20119;BME280;10220;42.716;23.306;2024-01-15T11:47:10;94214.13;;;5.50;80.19
20119;BME280;10220;42.716;23.306;2024-01-15T11:50:00;94201.72;;;5.73;80.77
20119;BME280;10220;42.716;23.306;2024-01-15T11:52:33;94200.31;;;5.71;81.47
20119;BME280;10220;42.716;23.306;2024-01-15T11:55:12;94185.50;;;5.79;80.69
20119;BME280;10220;42.716;23.306;2024-01-15T12:00:09;94169.53;;;5.77;77.83
20119;BME280;10220;42.716;23.306;2024-01-15T12:02:35;94173.66;;;5.52;77.98
20119;BME280;10220;42.716;23.306;2024-01-15T12:05:00;94178.78;;;5.52;79.64
20119;BME280;10220;42.716;23.306;2024-01-15T12:07:26;94176.78;;;5.61;79.26
20119;BME280;10220;42.716;23.306;2024-01-15T12:09:51;94167.91;;;5.44;81.60
20119;BME280;10220;42.716;23.306;2024-01-15T12:15:14;94153.69;;;5.61;83.68
20119;BME280;10220;42.716;23.306;2024-01-15T12:17:40;94167.91;;;5.70;81.84
20119;BME280;10220;42.716;23.306;2024-01-15T12:20:06;94170.69;;;5.75;80.31
20119;BME280;10220;42.716;23.306;2024-01-15T12:22:32;94143.03;;;5.25;83.60
20119;BME280;10220;42.716;23.306;2024-01-15T12:24:58;94150.09;;;5.10;85.25
20119;BME280;10220;42.716;23.306;2024-01-15T12:27:24;94170.66;;;5.23;82.89
20119;BME280;10220;42.716;23.306;2024-01-15T12:29:53;94144.38;;;5.08;83.33
20119;BME280;10220;42.716;23.306;2024-01-15T12:32:19;94151.28;;;5.21;83.38
20119;BME280;10220;42.716;23.306;2024-01-15T12:34:44;94150.50;;;5.20;84.42
20119;BME280;10220;42.716;23.306;2024-01-15T12:37:11;94150.72;;;5.19;81.40
20119;BME280;10220;42.716;23.306;2024-01-15T12:39:37;94110.81;;;5.10;80.46
20119;BME280;10220;42.716;23.306;2024-01-15T12:42:04;94141.03;;;5.08;82.43
20119;BME280;10220;42.716;23.306;2024-01-15T12:44:31;94134.13;;;5.15;83.57
20119;BME280;10220;42.716;23.306;2024-01-15T12:46:56;94126.66;;;5.32;83.29
20119;BME280;10220;42.716;23.306;2024-01-15T12:49:23;94124.88;;;5.39;81.14
20119;BME280;10220;42.716;23.306;2024-01-15T12:51:59;94129.59;;;5.42;80.27
20119;BME280;10220;42.716;23.306;2024-01-15T12:54:27;94127.44;;;5.52;81.52
20119;BME280;10220;42.716;23.306;2024-01-15T12:56:53;94127.41;;;5.26;83.60